All
Coondewanna Airport (Coondewanna, Western Australia) CJF Weather
|
Coondewanna, Western Australia (CJF / YCWA)
Clear skies
Calm winds |
|
51 °F |
CJF Terminal Area Forecast
| Here is the undecoded forecast: 2026/05/08 19:03 YCWA 081903Z 0820/0908 10010KT CAVOK FM090000 09016KT CAVOK RMK FM082000 MOD TURB BLW 5000FT TL090100 T 12 10 18 21 Q 1022 1023 1024 1020 |
Recent CJF METAR history
| Date | Time (AWST) | Flight Rules | Wind Dir. | Speed | Type | Height AGL (ft) | Visibility | Temp (°C) | Temp (°F) | Dew Point (°C) | Dew Point (°F) | Rel. Humid. | Pressure | Density Altitude | Remarks |
|---|---|---|---|---|---|---|---|---|---|---|---|---|---|---|---|
| 09-May | 05:00AM | VFR | Calm | 10000 meters | 11° | 51° | 0° | 32° | 47% | 1023 mb | 2,006 ft | ||||
| 09-May | 04:00AM | VFR | 80° | 6 kt | 10000 meters | 14° | 57° | 1° | 33° | 41% | 1022 mb | 2,396 ft | |||
| 09-May | 03:00AM | VFR | 100° | 7 kt | 10000 meters | 14° | 57° | 1° | 33° | 41% | 1022 mb | 2,396 ft | |||
| 09-May | 02:00AM | VFR | 90° | 9 kt | 10000 meters | 15° | 59° | 0° | 32° | 36% | 1023 mb | 2,486 ft | |||
| 09-May | 01:00AM | VFR | 60° | 3 kt | 10000 meters | 14° | 57° | 0° | 32° | 38% | 1023 mb | 2,366 ft | |||
| 09-May | 12:00AM | VFR | 90° | 6 kt | 10000 meters | 16° | 60° | 0° | 32° | 34% | 1023 mb | 2,606 ft | |||
| 08-May | 11:00PM | VFR | 90° | 6 kt | 10000 meters | 16° | 60° | 0° | 32° | 34% | 1023 mb | 2,606 ft | |||
| 08-May | 10:00PM | VFR | 90° | 7 kt | 10000 meters | 18° | 64° | -1° | 30° | 28% | 1023 mb | 2,846 ft | |||
| 08-May | 09:00PM | VFR | 110° | 12 kt | 10000 meters | 18° | 64° | -1° | 30° | 28% | 1023 mb | 2,846 ft | |||
| 08-May | 08:00PM | VFR | 90° | 6 kt | 10000 meters | 18° | 64° | -2° | 28° | 26% | 1022 mb | 2,876 ft | |||
| 08-May | 07:00PM | VFR | 100° | 9 kt | 10000 meters | 20° | 68° | -2° | 28° | 23% | 1022 mb | 3,116 ft | |||
| 08-May | 06:00PM | VFR | 90° | 10 kt | 10000 meters | 21° | 69° | -3° | 26° | 20% | 1021 mb | 3,265 ft | |||
| 08-May | 05:00PM | VFR | 80° | 12 kt | 10000 meters | 22° | 71° | -2° | 28° | 20% | 1020 mb | 3,415 ft | |||
| 08-May | 04:00PM | VFR | 110° | 13 kt | 10000 meters | 23° | 73° | -3° | 26° | 17% | 1020 mb | 3,535 ft | |||
| 08-May | 03:00PM | VFR | 110° | 14 kt | 10000 meters | 23° | 73° | -2° | 28° | 19% | 1020 mb | 3,535 ft | |||
| 08-May | 02:00PM | VFR | 100° | 13 kt | 10000 meters | 23° | 73° | 0° | 32° | 22% | 1020 mb | 3,535 ft | |||
| 08-May | 01:00PM | VFR | 90° | 15 kt | 10000 meters | 22° | 71° | 1° | 33° | 25% | 1021 mb | 3,385 ft | |||
| 08-May | 12:00PM | VFR | 80° | 15 kt | 10000 meters | 22° | 71° | 2° | 35° | 27% | 1022 mb | 3,356 ft | |||
| 08-May | 11:00AM | VFR | 90° | 15 kt | 10000 meters | 21° | 69° | 1° | 33° | 26% | 1024 mb | 3,176 ft | |||
| 08-May | 10:00AM | VFR | 80° | 15 kt | 10000 meters | 19° | 66° | 1° | 33° | 30% | 1024 mb | 2,936 ft | |||
| 08-May | 09:00AM | VFR | 90° | 16 kt | 10000 meters | 18° | 64° | 3° | 37° | 37% | 1025 mb | 2,787 ft | |||
| 08-May | 08:00AM | VFR | 90° | 14 kt | 10000 meters | 16° | 60° | 3° | 37° | 42% | 1025 mb | 2,547 ft | |||
| 08-May | 07:00AM | VFR | 80° | 8 kt | Few |
9,600 |
10000 meters | 14° | 57° | 2° | 35° | 44% | 1025 mb | 2,307 ft | |
| 08-May | 06:00AM | VFR | 80° | 8 kt | Broken |
9,600 |
10000 meters | 15° | 59° | 1° | 33° | 39% | 1024 mb | 2,456 ft |
Login
| Your browser is unsupported. upgrade your browser |
